Time;durP1;ratioP1;P1;durP2;ratioP2;P2;SDS_P1;SDS_P2;PMS_P1;PMS_P2;Temp;Humidity;BMP_temperature;BMP_pressure;BME280_temperature;BME280_humidity;BME280_pressure;Samples;Min_cycle;Max_cycle;Signal;HPM_P1;HPM_P2
2023/08/18 00:01:35;;;;;;;8.25;4.70;;;17.60;99.90;;;;;;4901358;29;20047;-69
2023/08/18 00:04:02;;;;;;;10.57;6.68;;;17.50;99.90;;;;;;4908446;29;20068;-65
2023/08/18 00:06:34;;;;;;;8.27;5.20;;;17.60;99.90;;;;;;4905594;29;20051;-66
2023/08/18 00:09:05;;;;;;;5.18;4.63;;;17.50;99.90;;;;;;4903818;29;20429;-65
2023/08/18 00:11:37;;;;;;;7.90;5.28;;;17.40;99.90;;;;;;4906971;29;20048;-65
2023/08/18 00:14:04;;;;;;;5.03;4.53;;;17.40;99.90;;;;;;4910983;29;20096;-65
2023/08/18 00:16:36;;;;;;;6.13;4.50;;;17.40;99.90;;;;;;4904411;29;20136;-66
2023/08/18 00:19:12;;;;;;;5.82;4.50;;;17.40;99.90;;;;;;4909570;29;20064;-65
2023/08/18 00:21:44;;;;;;;6.55;4.65;;;17.40;99.90;;;;;;4900511;29;20040;-65
2023/08/18 00:24:16;;;;;;;6.53;4.97;;;17.30;99.90;;;;;;4899732;29;20041;-66
2023/08/18 00:26:44;;;;;;;6.00;4.15;;;17.40;99.90;;;;;;4900749;29;20075;-65
2023/08/18 00:29:16;;;;;;;;;;;17.40;99.90;;;;;;4907127;29;20115;-65
2023/08/18 00:31:48;;;;;;;6.72;4.47;;;17.40;99.90;;;;;;4908783;29;19959;-65
2023/08/18 00:34:20;;;;;;;5.80;4.28;;;17.50;99.90;;;;;;4908626;29;20055;-66
2023/08/18 00:36:52;;;;;;;5.75;4.32;;;17.50;99.90;;;;;;4916269;29;20122;-66
2023/08/18 00:39:23;;;;;;;5.70;4.70;;;17.50;99.90;;;;;;4909969;29;20160;-65
2023/08/18 00:41:56;;;;;;;5.15;4.40;;;17.50;99.90;;;;;;4902177;29;20158;-66
2023/08/18 00:44:28;;;;;;;6.05;4.10;;;17.40;99.90;;;;;;4909992;29;20615;-66
2023/08/18 00:47:00;;;;;;;5.32;4.20;;;17.30;99.90;;;;;;4911887;29;20040;-66
2023/08/18 00:49:32;;;;;;;6.90;4.53;;;17.30;99.90;;;;;;4910494;29;20040;-66
2023/08/18 00:52:05;;;;;;;4.93;4.45;;;17.30;99.90;;;;;;4912698;29;20420;-66
2023/08/18 00:54:37;;;;;;;5.80;4.32;;;17.30;99.90;;;;;;4904969;29;20075;-66
2023/08/18 00:57:05;;;;;;;5.65;4.15;;;17.30;99.90;;;;;;4912654;29;20710;-66
2023/08/18 00:59:37;;;;;;;7.20;4.18;;;17.40;99.90;;;;;;4901238;29;20041;-66
2023/08/18 01:02:10;;;;;;;6.75;4.72;;;17.40;99.90;;;;;;4906928;29;20032;-66
2023/08/18 01:04:44;;;;;;;5.90;4.32;;;17.50;99.90;;;;;;4902081;29;20044;-66
2023/08/18 01:07:16;;;;;;;8.95;3.88;;;17.60;99.90;;;;;;4902033;29;20040;-66
2023/08/18 01:09:47;;;;;;;7.38;4.13;;;17.60;99.90;;;;;;4903797;29;20045;-66
2023/08/18 01:12:41;;;;;;;7.60;3.80;;;17.60;99.90;;;;;;4918045;29;20510;-66
2023/08/18 01:15:42;;;;;;;;;;;17.50;99.90;;;;;;4905618;29;20052;-66
2023/08/18 01:18:15;;;;;;;8.27;5.25;;;17.50;99.90;;;;;;4896067;29;20311;-66
2023/08/18 01:20:50;;;;;;;7.28;3.92;;;17.40;99.90;;;;;;4901731;29;20041;-66
2023/08/18 01:23:17;;;;;;;5.88;4.00;;;17.40;99.90;;;;;;4910108;29;20033;-66
2023/08/18 01:25:49;;;;;;;7.18;3.97;;;17.30;99.90;;;;;;4911236;29;20037;-66
2023/08/18 01:28:20;;;;;;;5.25;3.80;;;17.20;99.90;;;;;;4902970;29;20124;-66
2023/08/18 01:30:53;;;;;;;7.10;5.47;;;17.10;99.90;;;;;;4903499;29;20422;-66
2023/08/18 01:33:34;;;;;;;7.05;6.00;;;17.10;99.90;;;;;;4917652;29;20161;-66
2023/08/18 01:36:11;;;;;;;9.00;5.97;;;17.00;99.90;;;;;;4906706;29;20131;-66
2023/08/18 01:38:44;;;;;;;6.50;5.35;;;17.00;99.90;;;;;;4908330;29;20125;-66
2023/08/18 01:41:21;;;;;;;8.25;4.65;;;17.00;99.90;;;;;;4877305;29;1172555;-66
2023/08/18 01:43:53;;;;;;;6.65;5.03;;;17.00;99.90;;;;;;4917122;29;20056;-66
2023/08/18 01:46:25;;;;;;;6.57;4.90;;;17.10;99.90;;;;;;4910477;29;20045;-66
2023/08/18 01:48:59;;;;;;;6.90;4.25;;;17.20;99.90;;;;;;4913219;29;20048;-66
2023/08/18 01:51:31;;;;;;;5.50;3.90;;;17.10;99.90;;;;;;4903116;29;20040;-66
2023/08/18 01:54:03;;;;;;;7.07;4.50;;;17.00;99.90;;;;;;4920562;29;20149;-66
2023/08/18 01:56:30;;;;;;;4.75;3.90;;;16.90;99.90;;;;;;4911611;29;20497;-66
2023/08/18 01:59:03;;;;;;;5.40;3.88;;;17.00;99.90;;;;;;4911865;29;20131;-66
2023/08/18 02:01:35;;;;;;;5.80;3.70;;;17.00;99.90;;;;;;4906668;29;20135;-66
2023/08/18 02:04:07;;;;;;;4.82;3.65;;;17.10;99.90;;;;;;4905028;29;20055;-67
2023/08/18 02:06:39;;;;;;;5.55;4.05;;;17.20;99.90;;;;;;4909963;29;20509;-66
2023/08/18 02:09:11;;;;;;;5.45;4.10;;;17.30;99.90;;;;;;4917005;29;20128;-66
2023/08/18 02:11:43;;;;;;;5.07;3.55;;;17.30;99.90;;;;;;4900121;29;20049;-66
2023/08/18 02:14:15;;;;;;;6.60;3.75;;;17.30;99.90;;;;;;4911575;29;20044;-66
2023/08/18 02:16:48;;;;;;;7.30;3.97;;;17.30;99.90;;;;;;4911774;29;20046;-66
2023/08/18 02:19:20;;;;;;;5.78;3.53;;;17.30;99.90;;;;;;4912399;29;20050;-66
2023/08/18 02:21:52;;;;;;;6.05;4.05;;;17.30;99.90;;;;;;4911317;29;20409;-66
2023/08/18 02:24:25;;;;;;;7.10;3.63;;;17.30;99.90;;;;;;4908474;29;20036;-66
2023/08/18 02:26:57;;;;;;;8.00;4.18;;;17.50;99.90;;;;;;4911531;29;20143;-66
2023/08/18 02:29:29;;;;;;;4.68;3.92;;;17.30;99.90;;;;;;4907352;29;20413;-66
2023/08/18 02:32:01;;;;;;;5.55;4.63;;;17.30;99.90;;;;;;4910961;29;20136;-66
2023/08/18 02:34:32;;;;;;;4.95;3.67;;;17.30;99.90;;;;;;4909635;29;20052;-66
2023/08/18 02:37:04;;;;;;;7.05;4.20;;;17.20;99.90;;;;;;4912262;29;20051;-66
2023/08/18 02:39:37;;;;;;;6.35;3.92;;;17.20;99.90;;;;;;4916993;29;20363;-66
2023/08/18 02:42:08;;;;;;;4.38;4.00;;;17.10;99.90;;;;;;4918701;29;20071;-66
2023/08/18 02:44:35;;;;;;;5.15;3.80;;;16.90;99.90;;;;;;4910933;29;20043;-66
2023/08/18 02:47:03;;;;;;;5.40;3.70;;;16.90;99.90;;;;;;4911876;29;20043;-66
2023/08/18 02:49:34;;;;;;;6.60;3.85;;;16.90;99.90;;;;;;4910272;29;20055;-66
2023/08/18 02:52:06;;;;;;;6.60;3.65;;;16.80;99.90;;;;;;4910818;29;20067;-66
2023/08/18 02:54:38;;;;;;;5.78;4.30;;;16.80;99.90;;;;;;4908535;29;20044;-66
2023/08/18 02:57:10;;;;;;;7.45;5.30;;;16.70;99.90;;;;;;4896288;29;20043;-66
2023/08/18 02:59:42;;;;;;;6.20;5.60;;;16.70;99.90;;;;;;4911800;29;20076;-66
2023/08/18 03:02:14;;;;;;;7.97;5.80;;;16.70;99.90;;;;;;4911439;29;20044;-66
2023/08/18 03:04:40;;;;;;;7.82;5.32;;;16.60;99.90;;;;;;4909704;29;20119;-66
2023/08/18 03:07:12;;;;;;;6.45;5.60;;;16.50;99.90;;;;;;4911233;29;20040;-66
2023/08/18 03:09:44;;;;;;;6.57;4.95;;;16.50;99.90;;;;;;4910339;29;20048;-67
2023/08/18 03:12:16;;;;;;;7.63;4.72;;;16.60;99.90;;;;;;4910843;29;20461;-66
2023/08/18 03:14:50;;;;;;;6.28;5.57;;;16.70;99.90;;;;;;4909679;29;20754;-66
2023/08/18 03:17:22;;;;;;;8.30;5.65;;;16.70;99.90;;;;;;4908334;29;20044;-66
2023/08/18 03:19:49;;;;;;;7.70;5.70;;;16.70;99.90;;;;;;4898395;29;20032;-66
2023/08/18 03:22:21;;;;;;;7.40;5.68;;;16.70;99.90;;;;;;4911534;29;20051;-66
2023/08/18 03:24:53;;;;;;;8.23;5.43;;;16.60;99.90;;;;;;4911104;29;20206;-66
2023/08/18 03:27:25;;;;;;;6.90;4.38;;;16.50;99.90;;;;;;4910164;29;20048;-66
2023/08/18 03:29:58;;;;;;;7.22;4.53;;;16.50;99.90;;;;;;4905377;29;20561;-66
2023/08/18 03:32:31;;;;;;;;;;;16.50;99.90;;;;;;4911396;29;20044;-66
2023/08/18 03:35:03;;;;;;;6.63;4.30;;;16.60;99.90;;;;;;4920407;29;20385;-66
2023/08/18 03:37:35;;;;;;;4.67;4.17;;;16.80;99.90;;;;;;4917807;29;20135;-66
2023/08/18 03:40:07;;;;;;;5.75;4.47;;;16.80;99.90;;;;;;4909522;29;20147;-66
2023/08/18 03:42:39;;;;;;;4.70;3.70;;;16.70;99.90;;;;;;4909079;29;20044;-66
2023/08/18 03:45:07;;;;;;;5.93;4.25;;;16.70;99.90;;;;;;4910954;29;20054;-66
2023/08/18 03:47:41;;;;;;;7.18;4.28;;;16.60;99.90;;;;;;4911359;29;20054;-66
2023/08/18 03:50:14;;;;;;;5.40;3.97;;;16.70;99.90;;;;;;4897122;29;20044;-67
2023/08/18 03:52:46;;;;;;;5.70;3.97;;;16.70;99.90;;;;;;4919361;29;20044;-67
2023/08/18 03:55:13;;;;;;;6.90;4.13;;;16.60;99.90;;;;;;4911079;29;20043;-66
2023/08/18 03:57:45;;;;;;;6.90;4.55;;;16.50;99.90;;;;;;4904175;29;20051;-66
2023/08/18 04:00:17;;;;;;;4.85;4.10;;;16.40;99.90;;;;;;4895816;29;20143;-67
2023/08/18 04:02:51;;;;;;;5.82;4.10;;;16.30;99.90;;;;;;4908831;29;20549;-66
2023/08/18 04:05:17;;;;;;;4.82;3.80;;;16.20;99.90;;;;;;4909121;29;20040;-66
2023/08/18 04:07:50;;;;;;;4.97;4.25;;;16.10;99.90;;;;;;4908510;29;20044;-66
2023/08/18 04:10:22;;;;;;;4.70;4.18;;;16.10;99.90;;;;;;4906478;29;20055;-66
2023/08/18 04:12:54;;;;;;;4.20;3.80;;;16.00;99.90;;;;;;4910739;29;20523;-66
2023/08/18 04:15:26;;;;;;;4.80;4.03;;;16.00;99.90;;;;;;4909721;29;20155;-66
2023/08/18 04:17:57;;;;;;;5.05;3.70;;;16.00;99.90;;;;;;4908928;29;20073;-66
2023/08/18 04:20:29;;;;;;;5.85;4.25;;;16.20;99.90;;;;;;4913451;29;20047;-66
2023/08/18 04:23:01;;;;;;;6.47;4.65;;;16.20;99.90;;;;;;4913942;29;20047;-66
2023/08/18 04:25:28;;;;;;;7.00;4.30;;;16.20;99.90;;;;;;4912255;29;20048;-66
2023/08/18 04:28:00;;;;;;;5.00;4.43;;;16.10;99.90;;;;;;4915244;29;20044;-66
2023/08/18 04:30:32;;;;;;;5.38;4.57;;;16.10;99.90;;;;;;4910066;29;20049;-66
2023/08/18 04:33:07;;;;;;;6.10;4.07;;;16.10;99.90;;;;;;4914884;29;20482;-66
2023/08/18 04:35:39;;;;;;;6.13;3.90;;;16.20;99.90;;;;;;4913854;29;20048;-66
2023/08/18 04:38:13;;;;;;;9.25;4.40;;;16.10;99.90;;;;;;4908583;29;20135;-66
2023/08/18 04:40:56;;;;;;;5.85;3.90;;;15.90;99.90;;;;;;4898144;29;20143;-66
2023/08/18 04:43:22;;;;;;;5.05;4.15;;;15.90;99.90;;;;;;4920879;29;20044;-66
2023/08/18 04:45:54;;;;;;;4.80;4.30;;;16.10;99.90;;;;;;4912962;29;20914;-65
2023/08/18 04:48:27;;;;;;;5.17;4.27;;;16.10;99.90;;;;;;4912430;29;20055;-66
2023/08/18 04:50:59;;;;;;;4.38;3.97;;;16.00;99.90;;;;;;4912712;29;20048;-66
2023/08/18 04:53:31;;;;;;;5.13;4.18;;;16.00;99.90;;;;;;4915790;29;20051;-66
2023/08/18 04:56:03;;;;;;;4.63;3.88;;;16.00;99.90;;;;;;4920362;29;20076;-66
2023/08/18 04:58:35;;;;;;;8.40;4.40;;;16.10;99.90;;;;;;4913039;29;20049;-66
2023/08/18 05:01:08;;;;;;;11.23;7.25;;;16.10;99.90;;;;;;4912556;29;20053;-66
2023/08/18 05:03:40;;;;;;;7.93;5.95;;;16.10;99.90;;;;;;4913444;29;20044;-66
2023/08/18 05:06:13;;;;;;;7.68;5.57;;;16.10;99.90;;;;;;4913554;29;20052;-66
2023/08/18 05:08:44;;;;;;;17.33;7.33;;;16.10;99.90;;;;;;4911579;29;20043;-66
2023/08/18 05:11:16;;;;;;;11.65;6.97;;;16.10;99.90;;;;;;4889139;29;20517;-66
2023/08/18 05:13:48;;;;;;;15.77;7.32;;;16.00;99.90;;;;;;4912068;29;20044;-66
2023/08/18 05:16:21;;;;;;;6.72;5.40;;;15.90;99.90;;;;;;4911834;29;20063;-66
2023/08/18 05:18:48;;;;;;;6.15;5.28;;;15.90;99.90;;;;;;4902909;29;20480;-66
2023/08/18 05:21:20;;;;;;;7.20;6.18;;;15.90;99.90;;;;;;4907182;29;20432;-66
2023/08/18 05:23:52;;;;;;;8.60;5.53;;;15.90;99.90;;;;;;4912840;29;20390;-66
2023/08/18 05:26:24;;;;;;;8.18;6.35;;;15.90;99.90;;;;;;4909168;29;20536;-66
2023/08/18 05:28:56;;;;;;;22.45;13.90;;;16.00;99.90;;;;;;4911715;29;20712;-66
2023/08/18 05:31:27;;;;;;;17.25;10.88;;;16.00;99.90;;;;;;4910893;29;20067;-66
2023/08/18 05:33:59;;;;;;;13.63;8.73;;;16.10;99.90;;;;;;4904007;29;20051;-66
2023/08/18 05:36:31;;;;;;;10.38;7.53;;;16.20;99.90;;;;;;4911909;29;20044;-66
2023/08/18 05:38:58;;;;;;;9.85;7.53;;;16.20;99.90;;;;;;4906343;29;20071;-66
2023/08/18 05:41:30;;;;;;;10.73;7.55;;;16.30;99.90;;;;;;4920012;29;20494;-66
2023/08/18 05:44:02;;;;;;;11.13;7.70;;;16.40;99.90;;;;;;4913189;29;20561;-66
2023/08/18 05:46:34;;;;;;;8.63;6.85;;;16.50;99.90;;;;;;4920155;29;20036;-66
2023/08/18 05:49:02;;;;;;;12.68;7.72;;;16.60;99.90;;;;;;4919399;29;20087;-66
2023/08/18 05:51:34;;;;;;;8.27;6.90;;;16.70;99.90;;;;;;4920859;29;20078;-66
2023/08/18 05:54:06;;;;;;;10.90;7.65;;;16.70;99.90;;;;;;4921740;29;20381;-66
2023/08/18 05:56:38;;;;;;;12.88;9.40;;;16.80;99.90;;;;;;4916737;29;20047;-66
2023/08/18 05:59:10;;;;;;;9.57;7.50;;;16.90;99.90;;;;;;4913486;29;20048;-66
2023/08/18 06:01:42;;;;;;;10.50;8.77;;;16.90;99.90;;;;;;4916816;29;20051;-65
2023/08/18 06:04:14;;;;;;;8.88;7.88;;;16.90;99.90;;;;;;4917218;29;20036;-66
2023/08/18 06:06:46;;;;;;;7.88;6.72;;;16.90;99.90;;;;;;4919756;29;20048;-66
2023/08/18 06:09:19;;;;;;;7.07;6.32;;;16.90;99.90;;;;;;4914437;29;20051;-66
2023/08/18 06:11:50;;;;;;;8.20;7.40;;;16.80;99.90;;;;;;4922159;29;20039;-66
2023/08/18 06:14:22;;;;;;;9.15;7.22;;;16.90;99.90;;;;;;4917541;29;20052;-66
2023/08/18 06:16:54;;;;;;;7.07;6.38;;;16.90;99.90;;;;;;4922134;29;20040;-66
2023/08/18 06:19:26;;;;;;;9.35;6.68;;;16.90;99.90;;;;;;4919303;29;20055;-66
2023/08/18 06:21:58;;;;;;;6.75;6.13;;;17.00;99.90;;;;;;4916124;29;20047;-66
2023/08/18 06:24:29;;;;;;;6.93;6.32;;;17.10;99.90;;;;;;4914769;29;20050;-66
2023/08/18 06:26:57;;;;;;;7.38;6.57;;;17.20;99.90;;;;;;4918376;29;20528;-66
2023/08/18 06:29:24;;;;;;;7.57;6.25;;;17.30;99.90;;;;;;4921351;29;20075;-65
2023/08/18 06:31:56;;;;;;;6.78;5.80;;;17.40;99.90;;;;;;4919184;29;20050;-66
2023/08/18 06:34:28;;;;;;;8.13;5.43;;;17.50;99.90;;;;;;4916521;29;20527;-66
2023/08/18 06:37:00;;;;;;;8.05;6.05;;;17.60;99.90;;;;;;4918798;29;20044;-66
2023/08/18 06:39:32;;;;;;;6.88;5.55;;;17.70;99.90;;;;;;4909896;29;20068;-66
2023/08/18 06:42:04;;;;;;;6.20;5.57;;;17.80;99.90;;;;;;4913046;29;20091;-66
2023/08/18 06:44:32;;;;;;;6.57;5.25;;;17.80;99.90;;;;;;4902819;29;20485;-68
2023/08/18 06:47:05;;;;;;;6.03;5.25;;;17.90;99.90;;;;;;4903025;29;20044;-68
2023/08/18 06:49:37;;;;;;;7.90;5.63;;;17.90;99.90;;;;;;4911601;29;20048;-68
2023/08/18 06:52:08;;;;;;;5.15;4.65;;;18.00;99.90;;;;;;4907220;29;20059;-68
2023/08/18 06:54:40;;;;;;;7.15;5.20;;;18.00;99.90;;;;;;4902712;29;20037;-66
2023/08/18 06:57:12;;;;;;;9.45;5.88;;;18.10;99.90;;;;;;4916513;29;20058;-68
2023/08/18 06:59:39;;;;;;;6.80;5.80;;;18.20;99.90;;;;;;4898423;29;20096;-68
2023/08/18 07:02:06;;;;;;;8.27;6.40;;;18.20;99.90;;;;;;4899449;29;20040;-69
2023/08/18 07:04:38;;;;;;;8.00;6.90;;;18.30;99.90;;;;;;4898861;29;20047;-68
2023/08/18 07:07:05;;;;;;;6.35;5.38;;;18.40;99.90;;;;;;4912838;29;20123;-68
2023/08/18 07:09:37;;;;;;;6.45;5.38;;;18.50;99.90;;;;;;4915553;29;20127;-67
2023/08/18 07:12:04;;;;;;;6.35;5.55;;;18.60;99.90;;;;;;4906417;29;20043;-66
2023/08/18 07:14:36;;;;;;;5.30;4.80;;;18.70;99.90;;;;;;4907969;29;20058;-66
2023/08/18 07:17:08;;;;;;;6.25;4.10;;;18.70;99.90;;;;;;4907391;29;20308;-67
2023/08/18 07:19:40;;;;;;;9.23;5.00;;;18.80;99.90;;;;;;4904056;29;20044;-66
2023/08/18 07:22:12;;;;;;;6.35;4.35;;;18.80;99.90;;;;;;4910868;29;20045;-66
2023/08/18 07:24:45;;;;;;;5.85;4.88;;;18.90;99.90;;;;;;4901241;29;20048;-66
2023/08/18 07:27:18;;;;;;;4.85;4.03;;;19.00;99.90;;;;;;4910665;29;20055;-66
2023/08/18 07:29:50;;;;;;;6.10;4.40;;;19.00;99.90;;;;;;4904390;29;20115;-66
2023/08/18 07:32:17;;;;;;;6.55;4.50;;;19.10;99.90;;;;;;4911605;29;20052;-66
2023/08/18 07:34:49;;;;;;;6.20;4.80;;;19.10;99.90;;;;;;4908113;29;20095;-67
2023/08/18 07:37:21;;;;;;;5.93;4.38;;;19.10;99.90;;;;;;4908806;29;20453;-67
2023/08/18 07:39:52;;;;;;;7.13;4.28;;;19.20;99.90;;;;;;4910741;29;20041;-66
2023/08/18 07:42:19;;;;;;;5.45;4.43;;;19.20;99.90;;;;;;4907662;29;20048;-66
2023/08/18 07:44:51;;;;;;;7.53;4.72;;;19.20;99.90;;;;;;4925571;23;20063;-63
2023/08/18 07:47:23;;;;;;;7.47;5.15;;;19.30;99.90;;;;;;4931336;28;20067;-64
2023/08/18 07:49:55;;;;;;;5.88;4.80;;;19.40;99.90;;;;;;4955516;28;20862;-64
2023/08/18 07:52:27;;;;;;;6.75;4.55;;;19.50;99.90;;;;;;4955890;28;20050;-63
2023/08/18 07:54:59;;;;;;;5.85;4.32;;;19.50;99.90;;;;;;4945111;28;20589;-64
2023/08/18 07:57:30;;;;;;;5.57;4.30;;;19.60;99.90;;;;;;4931788;29;20040;-64
2023/08/18 08:00:16;;;;;;;4.82;4.28;;;19.70;99.90;;;;;;4935461;29;20066;-64
2023/08/18 08:02:49;;;;;;;5.10;4.10;;;19.80;99.90;;;;;;4929348;29;20504;-64
2023/08/18 08:05:21;;;;;;;6.38;3.78;;;19.90;99.90;;;;;;4927529;29;20135;-64
2023/08/18 08:07:53;;;;;;;5.97;4.20;;;20.00;99.90;;;;;;4923836;29;20036;-65
2023/08/18 08:10:24;;;;;;;10.43;4.68;;;20.10;99.90;;;;;;4925651;29;20036;-65
2023/08/18 08:12:52;;;;;;;7.60;4.80;;;20.20;99.90;;;;;;4929799;29;20119;-65
2023/08/18 08:15:23;;;;;;;7.60;4.32;;;20.30;99.90;;;;;;4930092;29;20052;-64
2023/08/18 08:17:56;;;;;;;4.28;3.88;;;20.40;99.90;;;;;;4929951;29;20075;-64
2023/08/18 08:20:24;;;;;;;8.45;6.00;;;20.50;99.90;;;;;;4929450;29;20099;-64
2023/08/18 08:22:56;;;;;;;10.50;8.32;;;20.60;99.90;;;;;;4932255;29;20048;-64
2023/08/18 08:25:28;;;;;;;11.23;7.53;;;20.70;99.90;;;;;;4915860;29;20852;-64
2023/08/18 08:28:00;;;;;;;6.32;5.10;;;20.90;99.90;;;;;;4930398;29;20052;-64
2023/08/18 08:30:32;;;;;;;5.60;3.50;;;21.00;99.90;;;;;;4933364;29;20535;-64
2023/08/18 08:33:04;;;;;;;5.50;4.38;;;21.10;99.90;;;;;;4932845;29;20046;-64
2023/08/18 08:35:35;;;;;;;7.15;5.70;;;21.20;99.90;;;;;;4929079;29;20052;-64
2023/08/18 08:38:07;;;;;;;8.73;4.15;;;21.20;99.90;;;;;;4934242;29;20535;-64
2023/08/18 08:40:34;;;;;;;5.45;4.22;;;21.30;99.90;;;;;;4936906;29;20048;-64
2023/08/18 08:43:06;;;;;;;5.03;3.78;;;21.40;99.90;;;;;;4935820;29;20058;-64
2023/08/18 08:45:39;;;;;;;6.25;4.15;;;21.50;99.90;;;;;;4932812;29;20044;-64
2023/08/18 08:48:10;;;;;;;6.97;5.00;;;21.60;99.90;;;;;;4935666;29;20048;-64
2023/08/18 08:50:47;;;;;;;4.70;3.80;;;21.70;99.90;;;;;;4933941;29;20047;-64
2023/08/18 08:53:27;;;;;;;3.88;3.50;;;21.80;99.90;;;;;;4933223;29;20052;-64
2023/08/18 08:56:01;;;;;;;4.53;3.58;;;21.90;99.90;;;;;;4932539;29;20131;-64
2023/08/18 08:58:36;;;;;;;6.53;3.60;;;22.00;99.90;;;;;;4926725;29;20044;-64
2023/08/18 09:01:09;;;;;;;5.57;3.60;;;22.10;99.90;;;;;;4934849;29;20138;-62
2023/08/18 09:03:36;;;;;;;3.70;3.40;;;22.20;99.90;;;;;;4940380;29;20048;-62
2023/08/18 09:06:03;;;;;;;4.75;3.53;;;22.30;99.90;;;;;;4934929;29;20087;-62
2023/08/18 09:08:30;;;;;;;5.25;3.20;;;22.30;99.90;;;;;;4935931;29;20107;-62
2023/08/18 09:11:02;;;;;;;5.03;4.07;;;22.40;99.90;;;;;;4935125;29;20052;-62
2023/08/18 09:13:35;;;;;;;4.63;3.03;;;22.50;99.90;;;;;;4938080;29;20127;-62
2023/08/18 09:16:07;;;;;;;3.38;2.80;;;22.60;99.90;;;;;;4935604;29;20050;-62
2023/08/18 09:18:39;;;;;;;7.32;3.72;;;22.80;99.90;;;;;;4931291;29;20049;-62
2023/08/18 09:21:13;;;;;;;4.78;2.70;;;22.90;99.90;;;;;;4932575;29;20685;-62
2023/08/18 09:23:45;;;;;;;3.88;2.55;;;23.00;99.90;;;;;;4934563;29;20048;-62
2023/08/18 09:26:17;;;;;;;3.63;2.53;;;23.10;99.90;;;;;;4935590;29;20062;-61
2023/08/18 09:28:49;;;;;;;3.63;3.15;;;23.30;99.90;;;;;;4929845;29;20040;-66
2023/08/18 09:31:21;;;;;;;4.43;2.80;;;23.40;99.90;;;;;;4938725;29;20047;-62
2023/08/18 09:33:53;;;;;;;3.75;2.78;;;23.50;99.90;;;;;;4938482;29;20138;-61
2023/08/18 09:36:25;;;;;;;5.95;4.00;;;23.60;99.90;;;;;;4935754;29;20082;-62
2023/08/18 09:38:57;;;;;;;6.15;3.78;;;23.70;99.90;;;;;;4931228;29;20067;-62
2023/08/18 09:41:31;;;;;;;4.05;3.33;;;23.70;99.90;;;;;;4935256;29;20040;-62
2023/08/18 09:44:03;;;;;;;2.78;2.58;;;23.80;99.90;;;;;;4927713;29;20136;-62
2023/08/18 09:46:37;;;;;;;3.58;3.20;;;24.00;99.90;;;;;;4932730;29;20074;-62
2023/08/18 09:49:10;;;;;;;4.28;3.50;;;24.10;99.90;;;;;;4938964;29;20647;-62
2023/08/18 09:51:42;;;;;;;;;;;24.20;99.90;;;;;;4931888;29;20532;-62
2023/08/18 09:54:19;;;;;;;4.40;2.65;;;24.20;99.90;;;;;;4934133;29;19978;-62
2023/08/18 09:56:55;;;;;;;3.28;2.72;;;24.30;99.90;;;;;;4935249;29;20048;-62
2023/08/18 09:59:31;;;;;;;3.47;3.17;;;24.40;99.90;;;;;;4935305;29;20047;-62
2023/08/18 10:02:04;;;;;;;3.97;3.55;;;24.50;99.90;;;;;;4935731;29;20052;-62
2023/08/18 10:04:39;;;;;;;5.10;3.28;;;24.60;99.90;;;;;;4941188;29;20078;-62
2023/08/18 10:07:15;;;;;;;5.25;3.00;;;24.70;99.90;;;;;;4930713;29;20040;-62
2023/08/18 10:09:47;;;;;;;4.70;2.90;;;24.80;99.90;;;;;;4935122;29;20044;-62
2023/08/18 10:12:19;;;;;;;6.28;3.40;;;24.90;99.90;;;;;;4932783;29;20382;-62
2023/08/18 10:14:53;;;;;;;4.50;2.75;;;25.00;99.90;;;;;;4934499;29;20036;-62
2023/08/18 10:17:25;;;;;;;3.08;2.60;;;25.10;99.90;;;;;;4934410;29;20790;-62
2023/08/18 10:20:03;;;;;;;2.97;2.67;;;25.20;99.90;;;;;;4935114;29;20056;-62
2023/08/18 10:22:35;;;;;;;3.67;2.60;;;25.30;99.90;;;;;;4932469;29;20666;-62
2023/08/18 10:25:07;;;;;;;2.70;2.50;;;25.40;99.90;;;;;;4933844;29;20048;-61
2023/08/18 10:27:42;;;;;;;3.50;2.45;;;25.40;99.90;;;;;;4924902;29;20054;-62
2023/08/18 10:30:14;;;;;;;4.05;3.50;;;25.50;99.90;;;;;;4933171;29;20084;-61
2023/08/18 10:32:46;;;;;;;4.17;2.93;;;25.60;99.90;;;;;;4928356;29;20087;-62
2023/08/18 10:35:21;;;;;;;4.03;2.53;;;25.60;99.90;;;;;;4929954;29;20743;-62
2023/08/18 10:38:00;;;;;;;4.53;2.63;;;25.70;99.90;;;;;;4928981;29;20062;-61
2023/08/18 10:40:30;;;;;;;3.92;2.60;;;25.70;99.90;;;;;;4930863;29;20040;-62
2023/08/18 10:43:13;;;;;;;4.32;2.65;;;25.80;99.90;;;;;;4943409;28;20062;-62
2023/08/18 10:45:55;;;;;;;5.47;3.10;;;25.80;99.90;;;;;;4932127;29;20051;-61
2023/08/18 10:48:27;;;;;;;3.05;2.35;;;25.90;99.90;;;;;;4925676;29;20746;-61
2023/08/18 10:50:54;;;;;;;4.80;2.53;;;26.00;99.90;;;;;;4931890;29;20044;-62
2023/08/18 10:53:32;;;;;;;2.33;1.98;;;26.10;99.90;;;;;;4932491;29;20051;-62
2023/08/18 10:56:04;;;;;;;2.45;2.17;;;26.30;99.90;;;;;;4929485;29;20044;-62
2023/08/18 10:58:36;;;;;;;4.50;2.17;;;26.40;99.90;;;;;;4930191;29;20142;-62
2023/08/18 11:01:09;;;;;;;2.30;1.85;;;26.40;99.90;;;;;;4935798;29;20064;-62
2023/08/18 11:03:41;;;;;;;2.63;2.15;;;26.50;99.90;;;;;;4935783;29;20520;-62
2023/08/18 11:06:13;;;;;;;2.10;1.90;;;26.60;99.90;;;;;;4934578;29;20504;-62
2023/08/18 11:08:45;;;;;;;3.83;3.15;;;26.60;99.90;;;;;;4934761;29;20043;-62
2023/08/18 11:11:18;;;;;;;2.08;1.88;;;26.70;99.90;;;;;;4935766;29;20040;-62
2023/08/18 11:13:50;;;;;;;;;;;26.70;99.90;;;;;;4934994;29;20479;-62
2023/08/18 11:16:18;;;;;;;1.95;1.77;;;26.70;99.90;;;;;;4934936;29;19933;-63
2023/08/18 11:18:51;;;;;;;2.35;1.73;;;26.70;99.90;;;;;;4934117;29;20397;-62
2023/08/18 11:21:24;;;;;;;3.60;2.00;;;26.80;99.90;;;;;;4937092;29;20070;-62
2023/08/18 11:23:52;;;;;;;4.10;1.90;;;26.90;99.90;;;;;;4936436;29;21325;-62
2023/08/18 11:26:24;;;;;;;2.20;2.00;;;26.90;99.90;;;;;;4938217;29;20048;-61
2023/08/18 11:28:57;;;;;;;2.10;1.83;;;27.00;99.90;;;;;;4936488;29;20086;-62
2023/08/18 11:31:29;;;;;;;1.83;1.60;;;27.00;99.90;;;;;;4932943;29;20067;-62
2023/08/18 11:34:01;;;;;;;3.10;1.90;;;27.10;99.90;;;;;;4948539;28;20036;-62
2023/08/18 11:36:33;;;;;;;3.85;2.00;;;27.20;99.90;;;;;;4936317;29;20047;-62
2023/08/18 11:39:08;;;;;;;3.15;2.47;;;27.30;99.90;;;;;;4928149;29;20158;-62
2023/08/18 11:41:45;;;;;;;2.97;2.10;;;27.30;99.90;;;;;;4929703;29;20500;-62
2023/08/18 11:44:12;;;;;;;2.00;1.80;;;27.40;99.90;;;;;;4934385;29;20135;-62
2023/08/18 11:46:39;;;;;;;1.80;1.58;;;27.30;99.90;;;;;;4934360;29;20054;-62
2023/08/18 11:49:12;;;;;;;1.92;1.52;;;27.30;99.90;;;;;;4927204;29;20063;-62
2023/08/18 11:51:55;;;;;;;2.20;1.90;;;27.30;99.90;;;;;;4929522;29;20036;-62
2023/08/18 11:54:31;;;;;;;2.47;2.10;;;27.50;99.90;;;;;;4929206;29;20040;-62
2023/08/18 11:56:59;;;;;;;3.63;2.75;;;27.50;99.90;;;;;;4931127;29;20037;-62
2023/08/18 11:59:26;;;;;;;3.63;1.95;;;27.50;99.90;;;;;;4934586;29;20036;-62
2023/08/18 12:02:04;;;;;;;;;;;27.50;99.90;;;;;;4927574;29;20048;-62
2023/08/18 12:04:41;;;;;;;3.47;2.40;;;27.60;99.90;;;;;;4926015;29;19929;-62
2023/08/18 12:07:13;;;;;;;3.42;1.80;;;27.70;99.90;;;;;;4923041;29;20044;-62
2023/08/18 12:09:40;;;;;;;2.00;1.80;;;27.80;99.90;;;;;;4928582;29;20079;-62
2023/08/18 12:12:15;;;;;;;2.95;2.00;;;28.00;99.90;;;;;;4924860;29;20048;-62
2023/08/18 12:14:47;;;;;;;2.30;1.60;;;28.10;99.90;;;;;;4921816;29;20525;-62
2023/08/18 12:17:19;;;;;;;4.60;1.50;;;28.20;99.90;;;;;;4918874;29;20079;-62
2023/08/18 12:19:51;;;;;;;4.22;2.20;;;28.30;99.90;;;;;;4927035;29;20424;-62
2023/08/18 12:22:23;;;;;;;2.07;1.70;;;28.50;99.90;;;;;;4924247;29;20121;-62
2023/08/18 12:24:50;;;;;;;1.80;1.52;;;28.60;99.90;;;;;;4926007;29;20067;-62
2023/08/18 12:27:23;;;;;;;3.50;2.40;;;28.50;99.90;;;;;;4929513;29;20044;-62
2023/08/18 12:29:56;;;;;;;2.40;1.80;;;28.50;99.90;;;;;;4928665;29;20051;-62
2023/08/18 12:32:29;;;;;;;1.88;1.48;;;28.60;99.90;;;;;;4924981;29;20131;-62
2023/08/18 12:35:01;;;;;;;1.80;1.58;;;28.70;99.90;;;;;;4927634;29;20047;-62
2023/08/18 12:37:33;;;;;;;1.45;1.35;;;28.80;99.90;;;;;;4924496;29;20481;-63
2023/08/18 12:40:10;;;;;;;1.58;1.23;;;29.00;99.90;;;;;;4925304;29;20504;-63
2023/08/18 12:42:41;;;;;;;3.05;1.65;;;29.00;99.90;;;;;;4925374;29;20054;-63
2023/08/18 12:45:13;;;;;;;2.13;1.80;;;29.10;99.90;;;;;;4935226;29;20052;-63
2023/08/18 12:47:45;;;;;;;2.28;1.70;;;29.20;99.90;;;;;;4929393;29;20509;-62
2023/08/18 12:50:12;;;;;;;1.70;1.60;;;29.30;99.90;;;;;;4931575;29;20172;-62
2023/08/18 12:52:43;;;;;;;2.55;1.60;;;29.40;99.90;;;;;;4937880;29;20572;-62
2023/08/18 12:55:15;;;;;;;2.92;1.30;;;29.50;99.90;;;;;;4931763;29;20044;-62
2023/08/18 12:57:47;;;;;;;3.22;1.25;;;29.50;99.90;;;;;;4929762;29;20055;-62
2023/08/18 13:00:19;;;;;;;1.90;1.38;;;29.50;99.90;;;;;;4923653;29;20055;-62
2023/08/18 13:02:51;;;;;;;1.43;1.30;;;29.50;99.90;;;;;;4929986;29;20431;-62
2023/08/18 13:05:22;;;;;;;4.13;1.80;;;29.50;99.90;;;;;;4926872;29;20048;-62
2023/08/18 13:07:54;;;;;;;4.03;1.92;;;29.60;99.90;;;;;;4935897;29;20035;-63
2023/08/18 13:10:26;;;;;;;1.85;1.30;;;29.70;99.90;;;;;;4929115;29;20051;-62
2023/08/18 13:12:58;;;;;;;1.90;1.27;;;29.70;99.90;;;;;;4932498;29;20032;-63